Aviation Digital Data Service (ADDS)

Output produced by METARs form (0010 UTC 23 September 2017)
found at http://aviationweather.gov/adds/metars/
 
KAND 222334Z 2300/2324 VRB03KT P6SM FEW250 
     FM231400 05004KT P6SM FEW200 
     FM231600 06005KT P6SM FEW050